Terminal Aerodrome Forecast
Issued by NWS

Home | Current Version | Previous Version | Graphics & Text | Print | Product List | Glossary On
Versions: 1 2 3 4 5 6 7 8 9 10 11 12 13 14 15 16 17 18
273
FTUS43 KICT 301135
TAFCNU
TAF
KCNU 301135Z 3012/3112 00000KT 5SM BR BKN300
     FM301400 VRB03KT P6SM BKN035
     FM302000 VRB03KT P6SM SCT040=

USA.gov is the U.S. government's official web portal to all federal, state and local government web resources and services.